sensor_id;sensor_type;location;lat;lon;timestamp;temperature;humidity
23873;DHT22;42884;50.718;4.630;2023-05-10T00:01:01;14.40;99.90
23873;DHT22;42884;50.718;4.630;2023-05-10T00:03:27;14.30;99.90
23873;DHT22;42884;50.718;4.630;2023-05-10T00:05:53;14.40;99.90
23873;DHT22;42884;50.718;4.630;2023-05-10T00:08:19;14.40;99.90
23873;DHT22;42884;50.718;4.630;2023-05-10T00:10:44;14.40;99.90
23873;DHT22;42884;50.718;4.630;2023-05-10T00:13:10;14.40;99.90
23873;DHT22;42884;50.718;4.630;2023-05-10T00:15:35;14.30;99.90
23873;DHT22;42884;50.718;4.630;2023-05-10T00:18:01;14.20;99.90
23873;DHT22;42884;50.718;4.630;2023-05-10T00:20:26;14.30;99.90
23873;DHT22;42884;50.718;4.630;2023-05-10T00:22:52;14.40;99.90
23873;DHT22;42884;50.718;4.630;2023-05-10T00:25:18;14.30;99.90
23873;DHT22;42884;50.718;4.630;2023-05-10T00:27:43;14.30;99.90
23873;DHT22;42884;50.718;4.630;2023-05-10T00:30:09;14.30;99.90
23873;DHT22;42884;50.718;4.630;2023-05-10T00:32:34;14.40;99.90
23873;DHT22;42884;50.718;4.630;2023-05-10T00:35:00;14.40;99.90
23873;DHT22;42884;50.718;4.630;2023-05-10T00:37:26;14.40;99.90
23873;DHT22;42884;50.718;4.630;2023-05-10T00:39:51;14.50;99.90
23873;DHT22;42884;50.718;4.630;2023-05-10T00:42:17;14.50;99.90
23873;DHT22;42884;50.718;4.630;2023-05-10T00:44:42;14.40;99.90
23873;DHT22;42884;50.718;4.630;2023-05-10T00:47:08;14.40;99.90
23873;DHT22;42884;50.718;4.630;2023-05-10T00:49:34;14.40;99.90
23873;DHT22;42884;50.718;4.630;2023-05-10T00:52:00;14.40;99.90
23873;DHT22;42884;50.718;4.630;2023-05-10T00:54:27;14.40;99.90
23873;DHT22;42884;50.718;4.630;2023-05-10T00:56:52;14.40;99.90
23873;DHT22;42884;50.718;4.630;2023-05-10T00:59:18;14.40;99.90
23873;DHT22;42884;50.718;4.630;2023-05-10T01:01:44;14.40;99.90
23873;DHT22;42884;50.718;4.630;2023-05-10T01:04:12;14.40;99.90
23873;DHT22;42884;50.718;4.630;2023-05-10T01:06:38;14.30;99.90
23873;DHT22;42884;50.718;4.630;2023-05-10T01:09:04;14.30;99.90
23873;DHT22;42884;50.718;4.630;2023-05-10T01:11:32;14.30;99.90
23873;DHT22;42884;50.718;4.630;2023-05-10T01:13:58;14.30;99.90
23873;DHT22;42884;50.718;4.630;2023-05-10T01:16:23;14.30;99.90
23873;DHT22;42884;50.718;4.630;2023-05-10T01:18:50;14.40;99.90
23873;DHT22;42884;50.718;4.630;2023-05-10T01:34:12;14.30;99.90
23873;DHT22;42884;50.718;4.630;2023-05-10T01:36:45;14.10;99.90
23873;DHT22;42884;50.718;4.630;2023-05-10T01:39:42;14.30;99.90
23873;DHT22;42884;50.718;4.630;2023-05-10T01:42:20;14.30;99.90
23873;DHT22;42884;50.718;4.630;2023-05-10T01:44:52;14.30;99.90
23873;DHT22;42884;50.718;4.630;2023-05-10T01:47:28;14.30;99.90
23873;DHT22;42884;50.718;4.630;2023-05-10T01:49:56;14.30;99.90
23873;DHT22;42884;50.718;4.630;2023-05-10T01:52:26;14.40;99.90
23873;DHT22;42884;50.718;4.630;2023-05-10T01:55:11;14.40;99.90
23873;DHT22;42884;50.718;4.630;2023-05-10T01:57:38;14.50;99.90
23873;DHT22;42884;50.718;4.630;2023-05-10T02:00:05;14.60;99.90
23873;DHT22;42884;50.718;4.630;2023-05-10T02:02:37;14.50;99.90
23873;DHT22;42884;50.718;4.630;2023-05-10T02:05:06;14.60;99.90
23873;DHT22;42884;50.718;4.630;2023-05-10T02:07:36;14.60;99.90
23873;DHT22;42884;50.718;4.630;2023-05-10T02:10:05;14.60;99.90
23873;DHT22;42884;50.718;4.630;2023-05-10T02:12:35;14.70;99.90
23873;DHT22;42884;50.718;4.630;2023-05-10T02:15:02;14.60;99.90
23873;DHT22;42884;50.718;4.630;2023-05-10T02:17:28;14.70;99.90
23873;DHT22;42884;50.718;4.630;2023-05-10T02:19:54;14.70;99.90
23873;DHT22;42884;50.718;4.630;2023-05-10T02:22:20;14.80;99.90
23873;DHT22;42884;50.718;4.630;2023-05-10T02:24:47;14.70;99.90
23873;DHT22;42884;50.718;4.630;2023-05-10T02:27:12;14.70;99.90
23873;DHT22;42884;50.718;4.630;2023-05-10T02:29:39;14.70;99.90
23873;DHT22;42884;50.718;4.630;2023-05-10T02:32:05;14.70;99.90
23873;DHT22;42884;50.718;4.630;2023-05-10T02:34:31;14.80;99.90
23873;DHT22;42884;50.718;4.630;2023-05-10T02:36:57;14.80;99.90
23873;DHT22;42884;50.718;4.630;2023-05-10T02:39:23;14.80;99.90
23873;DHT22;42884;50.718;4.630;2023-05-10T02:41:50;14.80;99.90
23873;DHT22;42884;50.718;4.630;2023-05-10T02:44:17;14.70;99.90
23873;DHT22;42884;50.718;4.630;2023-05-10T02:46:43;14.80;99.90
23873;DHT22;42884;50.718;4.630;2023-05-10T02:49:09;14.80;99.90
23873;DHT22;42884;50.718;4.630;2023-05-10T02:51:35;14.80;99.90
23873;DHT22;42884;50.718;4.630;2023-05-10T02:54:12;14.80;99.90
23873;DHT22;42884;50.718;4.630;2023-05-10T02:56:46;14.60;99.90
23873;DHT22;42884;50.718;4.630;2023-05-10T02:59:12;14.70;99.90
23873;DHT22;42884;50.718;4.630;2023-05-10T03:01:38;14.60;99.90
23873;DHT22;42884;50.718;4.630;2023-05-10T03:04:04;14.70;99.90
23873;DHT22;42884;50.718;4.630;2023-05-10T03:06:29;14.80;99.90
23873;DHT22;42884;50.718;4.630;2023-05-10T03:08:55;14.70;99.90
23873;DHT22;42884;50.718;4.630;2023-05-10T03:11:32;14.60;99.90
23873;DHT22;42884;50.718;4.630;2023-05-10T03:14:47;14.60;99.90
23873;DHT22;42884;50.718;4.630;2023-05-10T03:16:56;14.60;99.90
23873;DHT22;42884;50.718;4.630;2023-05-10T03:21:49;14.70;99.90
23873;DHT22;42884;50.718;4.630;2023-05-10T03:24:16;14.70;99.90
23873;DHT22;42884;50.718;4.630;2023-05-10T03:26:43;14.60;99.90
23873;DHT22;42884;50.718;4.630;2023-05-10T03:29:08;14.70;99.90
23873;DHT22;42884;50.718;4.630;2023-05-10T03:31:35;14.50;99.90
23873;DHT22;42884;50.718;4.630;2023-05-10T03:34:01;14.40;99.90
23873;DHT22;42884;50.718;4.630;2023-05-10T03:36:26;14.40;99.90
23873;DHT22;42884;50.718;4.630;2023-05-10T03:38:52;14.40;99.90
23873;DHT22;42884;50.718;4.630;2023-05-10T03:41:18;14.40;99.90
23873;DHT22;42884;50.718;4.630;2023-05-10T03:43:43;14.40;99.90
23873;DHT22;42884;50.718;4.630;2023-05-10T03:46:09;14.40;99.90
23873;DHT22;42884;50.718;4.630;2023-05-10T03:48:34;14.40;99.90
23873;DHT22;42884;50.718;4.630;2023-05-10T03:51:00;14.40;99.90
23873;DHT22;42884;50.718;4.630;2023-05-10T03:53:26;14.50;99.90
23873;DHT22;42884;50.718;4.630;2023-05-10T03:55:52;14.40;99.90
23873;DHT22;42884;50.718;4.630;2023-05-10T03:58:17;14.40;99.90
23873;DHT22;42884;50.718;4.630;2023-05-10T04:00:43;14.50;99.90
23873;DHT22;42884;50.718;4.630;2023-05-10T04:03:11;14.50;99.90
23873;DHT22;42884;50.718;4.630;2023-05-10T04:05:36;14.60;99.90
23873;DHT22;42884;50.718;4.630;2023-05-10T04:08:02;14.50;99.90
23873;DHT22;42884;50.718;4.630;2023-05-10T04:10:28;14.40;99.90
23873;DHT22;42884;50.718;4.630;2023-05-10T04:12:53;14.40;99.90
23873;DHT22;42884;50.718;4.630;2023-05-10T04:15:19;14.30;99.90
23873;DHT22;42884;50.718;4.630;2023-05-10T04:17:45;14.10;99.90
23873;DHT22;42884;50.718;4.630;2023-05-10T04:20:11;14.20;99.90
23873;DHT22;42884;50.718;4.630;2023-05-10T04:22:37;14.00;99.90
23873;DHT22;42884;50.718;4.630;2023-05-10T04:25:03;14.10;99.90
23873;DHT22;42884;50.718;4.630;2023-05-10T04:27:28;14.10;99.90
23873;DHT22;42884;50.718;4.630;2023-05-10T04:29:54;14.20;99.90
23873;DHT22;42884;50.718;4.630;2023-05-10T04:32:20;14.30;99.90
23873;DHT22;42884;50.718;4.630;2023-05-10T04:34:45;14.20;99.90
23873;DHT22;42884;50.718;4.630;2023-05-10T04:37:11;14.30;99.90
23873;DHT22;42884;50.718;4.630;2023-05-10T04:39:37;14.40;99.90
23873;DHT22;42884;50.718;4.630;2023-05-10T04:42:02;14.40;99.90
23873;DHT22;42884;50.718;4.630;2023-05-10T04:44:28;14.40;99.90
23873;DHT22;42884;50.718;4.630;2023-05-10T04:46:54;14.40;99.90
23873;DHT22;42884;50.718;4.630;2023-05-10T04:49:20;14.40;99.90
23873;DHT22;42884;50.718;4.630;2023-05-10T04:51:46;14.40;99.90
23873;DHT22;42884;50.718;4.630;2023-05-10T04:54:11;14.30;99.90
23873;DHT22;42884;50.718;4.630;2023-05-10T04:56:37;14.20;99.90
23873;DHT22;42884;50.718;4.630;2023-05-10T04:59:03;14.20;99.90
23873;DHT22;42884;50.718;4.630;2023-05-10T05:01:29;14.10;99.90
23873;DHT22;42884;50.718;4.630;2023-05-10T05:03:54;14.10;99.90
23873;DHT22;42884;50.718;4.630;2023-05-10T05:06:20;13.90;99.90
23873;DHT22;42884;50.718;4.630;2023-05-10T05:08:50;13.80;99.90
23873;DHT22;42884;50.718;4.630;2023-05-10T05:11:16;13.90;99.90
23873;DHT22;42884;50.718;4.630;2023-05-10T05:13:42;13.90;99.90
23873;DHT22;42884;50.718;4.630;2023-05-10T05:16:08;13.90;99.90
23873;DHT22;42884;50.718;4.630;2023-05-10T05:18:34;14.00;99.90
23873;DHT22;42884;50.718;4.630;2023-05-10T05:21:00;14.00;99.90
23873;DHT22;42884;50.718;4.630;2023-05-10T05:23:26;13.80;99.90
23873;DHT22;42884;50.718;4.630;2023-05-10T05:25:52;13.70;99.90
23873;DHT22;42884;50.718;4.630;2023-05-10T05:28:18;13.70;99.90
23873;DHT22;42884;50.718;4.630;2023-05-10T05:30:44;13.70;99.90
23873;DHT22;42884;50.718;4.630;2023-05-10T05:33:10;13.70;99.90
23873;DHT22;42884;50.718;4.630;2023-05-10T05:35:36;13.70;99.90
23873;DHT22;42884;50.718;4.630;2023-05-10T05:38:01;13.70;99.90
23873;DHT22;42884;50.718;4.630;2023-05-10T05:40:27;13.60;99.90
23873;DHT22;42884;50.718;4.630;2023-05-10T05:42:52;13.60;99.90
23873;DHT22;42884;50.718;4.630;2023-05-10T05:45:18;13.60;99.90
23873;DHT22;42884;50.718;4.630;2023-05-10T05:47:44;13.70;99.90
23873;DHT22;42884;50.718;4.630;2023-05-10T05:50:09;13.60;99.90
23873;DHT22;42884;50.718;4.630;2023-05-10T05:52:35;13.50;99.90
23873;DHT22;42884;50.718;4.630;2023-05-10T05:55:01;13.50;99.90
23873;DHT22;42884;50.718;4.630;2023-05-10T05:57:27;13.50;99.90
23873;DHT22;42884;50.718;4.630;2023-05-10T05:59:52;13.50;99.90
23873;DHT22;42884;50.718;4.630;2023-05-10T06:02:18;13.60;99.90
23873;DHT22;42884;50.718;4.630;2023-05-10T06:04:43;13.60;99.90
23873;DHT22;42884;50.718;4.630;2023-05-10T06:07:09;13.70;99.90
23873;DHT22;42884;50.718;4.630;2023-05-10T06:09:35;13.70;99.90
23873;DHT22;42884;50.718;4.630;2023-05-10T06:12:00;13.70;99.90
23873;DHT22;42884;50.718;4.630;2023-05-10T06:14:26;13.50;99.90
23873;DHT22;42884;50.718;4.630;2023-05-10T06:16:52;13.50;99.90
23873;DHT22;42884;50.718;4.630;2023-05-10T06:19:18;13.50;99.90
23873;DHT22;42884;50.718;4.630;2023-05-10T06:21:43;13.50;99.90
23873;DHT22;42884;50.718;4.630;2023-05-10T06:24:09;13.40;99.90
23873;DHT22;42884;50.718;4.630;2023-05-10T06:26:35;13.40;99.90
23873;DHT22;42884;50.718;4.630;2023-05-10T06:29:01;13.50;99.90
23873;DHT22;42884;50.718;4.630;2023-05-10T06:31:26;13.30;99.90
23873;DHT22;42884;50.718;4.630;2023-05-10T06:33:52;13.30;99.90
23873;DHT22;42884;50.718;4.630;2023-05-10T06:36:18;13.30;99.90
23873;DHT22;42884;50.718;4.630;2023-05-10T06:38:43;13.40;99.90
23873;DHT22;42884;50.718;4.630;2023-05-10T06:41:09;13.40;99.90
23873;DHT22;42884;50.718;4.630;2023-05-10T06:43:35;13.50;99.90
23873;DHT22;42884;50.718;4.630;2023-05-10T06:46:00;13.40;99.90
23873;DHT22;42884;50.718;4.630;2023-05-10T06:48:26;13.40;99.90
23873;DHT22;42884;50.718;4.630;2023-05-10T06:50:52;13.50;99.90
23873;DHT22;42884;50.718;4.630;2023-05-10T06:53:17;13.60;99.90
23873;DHT22;42884;50.718;4.630;2023-05-10T06:55:43;13.50;99.90
23873;DHT22;42884;50.718;4.630;2023-05-10T06:58:09;13.40;99.90
23873;DHT22;42884;50.718;4.630;2023-05-10T07:00:34;13.50;99.90
23873;DHT22;42884;50.718;4.630;2023-05-10T07:03:00;13.50;99.90
23873;DHT22;42884;50.718;4.630;2023-05-10T07:05:26;13.60;99.90
23873;DHT22;42884;50.718;4.630;2023-05-10T07:07:53;13.60;99.90
23873;DHT22;42884;50.718;4.630;2023-05-10T07:10:18;13.70;99.90
23873;DHT22;42884;50.718;4.630;2023-05-10T07:12:44;13.70;99.90
23873;DHT22;42884;50.718;4.630;2023-05-10T07:15:09;13.80;99.90
23873;DHT22;42884;50.718;4.630;2023-05-10T07:17:35;13.70;99.90
23873;DHT22;42884;50.718;4.630;2023-05-10T07:20:01;13.80;99.90
23873;DHT22;42884;50.718;4.630;2023-05-10T07:22:27;13.90;99.90
23873;DHT22;42884;50.718;4.630;2023-05-10T07:24:52;13.90;99.90
23873;DHT22;42884;50.718;4.630;2023-05-10T07:27:18;13.90;99.90
23873;DHT22;42884;50.718;4.630;2023-05-10T07:29:43;14.00;99.90
23873;DHT22;42884;50.718;4.630;2023-05-10T07:32:09;14.10;99.90
23873;DHT22;42884;50.718;4.630;2023-05-10T07:34:34;14.10;99.90
23873;DHT22;42884;50.718;4.630;2023-05-10T07:37:00;14.10;99.90
23873;DHT22;42884;50.718;4.630;2023-05-10T07:39:26;14.20;99.90
23873;DHT22;42884;50.718;4.630;2023-05-10T07:41:52;14.20;99.90
23873;DHT22;42884;50.718;4.630;2023-05-10T07:44:18;14.00;99.90
23873;DHT22;42884;50.718;4.630;2023-05-10T07:46:45;14.10;99.90
23873;DHT22;42884;50.718;4.630;2023-05-10T07:49:11;14.10;99.90
23873;DHT22;42884;50.718;4.630;2023-05-10T07:51:37;14.20;99.90
23873;DHT22;42884;50.718;4.630;2023-05-10T07:54:02;14.20;99.90
23873;DHT22;42884;50.718;4.630;2023-05-10T07:56:31;14.20;99.90
23873;DHT22;42884;50.718;4.630;2023-05-10T07:59:00;14.00;99.90
23873;DHT22;42884;50.718;4.630;2023-05-10T08:01:26;14.10;99.90
23873;DHT22;42884;50.718;4.630;2023-05-10T08:03:52;14.00;99.90
23873;DHT22;42884;50.718;4.630;2023-05-10T08:06:18;13.90;99.90
23873;DHT22;42884;50.718;4.630;2023-05-10T08:08:47;14.00;99.90
23873;DHT22;42884;50.718;4.630;2023-05-10T08:11:18;14.10;99.90
23873;DHT22;42884;50.718;4.630;2023-05-10T08:13:44;14.20;99.90
23873;DHT22;42884;50.718;4.630;2023-05-10T08:16:10;14.30;99.90
23873;DHT22;42884;50.718;4.630;2023-05-10T08:18:35;14.40;99.90
23873;DHT22;42884;50.718;4.630;2023-05-10T08:21:01;14.30;99.90
23873;DHT22;42884;50.718;4.630;2023-05-10T08:23:26;14.30;99.90
23873;DHT22;42884;50.718;4.630;2023-05-10T08:25:52;14.40;99.90
23873;DHT22;42884;50.718;4.630;2023-05-10T08:28:18;14.40;99.90
23873;DHT22;42884;50.718;4.630;2023-05-10T08:30:43;14.40;99.90
23873;DHT22;42884;50.718;4.630;2023-05-10T08:33:09;14.50;99.90
23873;DHT22;42884;50.718;4.630;2023-05-10T08:35:34;14.40;99.90
23873;DHT22;42884;50.718;4.630;2023-05-10T08:38:00;14.40;99.90
23873;DHT22;42884;50.718;4.630;2023-05-10T08:40:26;14.50;99.90
23873;DHT22;42884;50.718;4.630;2023-05-10T08:42:59;14.50;99.90
23873;DHT22;42884;50.718;4.630;2023-05-10T08:45:27;14.50;99.90
23873;DHT22;42884;50.718;4.630;2023-05-10T08:47:57;14.30;99.90
23873;DHT22;42884;50.718;4.630;2023-05-10T08:50:23;14.30;99.90
23873;DHT22;42884;50.718;4.630;2023-05-10T08:52:49;14.30;99.90
23873;DHT22;42884;50.718;4.630;2023-05-10T08:55:16;14.30;99.90
23873;DHT22;42884;50.718;4.630;2023-05-10T08:57:42;14.10;99.90
23873;DHT22;42884;50.718;4.630;2023-05-10T09:00:08;14.40;99.90
23873;DHT22;42884;50.718;4.630;2023-05-10T09:02:35;14.40;99.90
23873;DHT22;42884;50.718;4.630;2023-05-10T09:05:02;14.50;99.90
23873;DHT22;42884;50.718;4.630;2023-05-10T09:07:29;14.70;99.90
23873;DHT22;42884;50.718;4.630;2023-05-10T09:09:55;14.40;99.90
23873;DHT22;42884;50.718;4.630;2023-05-10T09:12:22;14.50;99.90
23873;DHT22;42884;50.718;4.630;2023-05-10T09:14:48;14.60;99.90
23873;DHT22;42884;50.718;4.630;2023-05-10T09:17:15;14.70;99.90
23873;DHT22;42884;50.718;4.630;2023-05-10T09:19:41;14.60;99.90
23873;DHT22;42884;50.718;4.630;2023-05-10T09:22:06;14.70;99.90
23873;DHT22;42884;50.718;4.630;2023-05-10T09:24:32;14.80;99.90
23873;DHT22;42884;50.718;4.630;2023-05-10T09:26:57;14.60;99.90
23873;DHT22;42884;50.718;4.630;2023-05-10T09:29:26;14.60;99.90
23873;DHT22;42884;50.718;4.630;2023-05-10T09:31:53;14.60;99.90
23873;DHT22;42884;50.718;4.630;2023-05-10T09:34:31;14.30;99.90
23873;DHT22;42884;50.718;4.630;2023-05-10T09:37:00;14.40;99.90
23873;DHT22;42884;50.718;4.630;2023-05-10T09:39:36;14.40;99.90
23873;DHT22;42884;50.718;4.630;2023-05-10T09:42:03;14.50;99.90
23873;DHT22;42884;50.718;4.630;2023-05-10T09:44:30;14.60;99.90
23873;DHT22;42884;50.718;4.630;2023-05-10T09:46:55;14.60;99.90
23873;DHT22;42884;50.718;4.630;2023-05-10T09:49:21;14.70;99.90
23873;DHT22;42884;50.718;4.630;2023-05-10T09:51:47;14.90;99.90
23873;DHT22;42884;50.718;4.630;2023-05-10T09:54:14;15.00;99.90
23873;DHT22;42884;50.718;4.630;2023-05-10T09:56:40;15.10;99.90
23873;DHT22;42884;50.718;4.630;2023-05-10T09:59:06;15.10;99.90
23873;DHT22;42884;50.718;4.630;2023-05-10T10:01:32;15.10;99.90
23873;DHT22;42884;50.718;4.630;2023-05-10T10:03:58;15.20;99.90
23873;DHT22;42884;50.718;4.630;2023-05-10T10:06:24;15.20;99.90
23873;DHT22;42884;50.718;4.630;2023-05-10T10:08:53;15.20;99.90
23873;DHT22;42884;50.718;4.630;2023-05-10T10:11:19;15.20;99.90
23873;DHT22;42884;50.718;4.630;2023-05-10T10:13:45;15.10;99.90
23873;DHT22;42884;50.718;4.630;2023-05-10T10:16:10;15.00;99.90
23873;DHT22;42884;50.718;4.630;2023-05-10T10:18:36;15.00;99.90
23873;DHT22;42884;50.718;4.630;2023-05-10T10:21:08;15.10;99.90
23873;DHT22;42884;50.718;4.630;2023-05-10T10:23:36;15.10;99.90
23873;DHT22;42884;50.718;4.630;2023-05-10T10:26:02;15.10;99.90
23873;DHT22;42884;50.718;4.630;2023-05-10T10:30:59;14.60;99.90
23873;DHT22;42884;50.718;4.630;2023-05-10T10:36:11;14.60;99.90
23873;DHT22;42884;50.718;4.630;2023-05-10T10:38:54;14.60;99.90
23873;DHT22;42884;50.718;4.630;2023-05-10T10:47:04;14.60;99.90
23873;DHT22;42884;50.718;4.630;2023-05-10T10:52:27;14.60;99.90
23873;DHT22;42884;50.718;4.630;2023-05-10T10:57:42;14.60;99.90
23873;DHT22;42884;50.718;4.630;2023-05-10T11:00:17;14.50;99.90
23873;DHT22;42884;50.718;4.630;2023-05-10T11:02:44;14.40;99.90
23873;DHT22;42884;50.718;4.630;2023-05-10T11:07:55;14.60;99.90
23873;DHT22;42884;50.718;4.630;2023-05-10T11:10:22;14.60;99.90
23873;DHT22;42884;50.718;4.630;2023-05-10T11:13:00;14.90;99.90
23873;DHT22;42884;50.718;4.630;2023-05-10T11:15:36;15.00;99.90
23873;DHT22;42884;50.718;4.630;2023-05-10T11:18:21;15.10;99.90
23873;DHT22;42884;50.718;4.630;2023-05-10T11:20:52;15.30;99.90
23873;DHT22;42884;50.718;4.630;2023-05-10T11:23:18;15.50;99.90
23873;DHT22;42884;50.718;4.630;2023-05-10T11:25:45;15.70;99.90
23873;DHT22;42884;50.718;4.630;2023-05-10T11:28:11;15.70;99.90
23873;DHT22;42884;50.718;4.630;2023-05-10T11:30:40;15.60;99.90
23873;DHT22;42884;50.718;4.630;2023-05-10T11:33:06;15.60;99.90
23873;DHT22;42884;50.718;4.630;2023-05-10T11:35:41;15.70;99.90
23873;DHT22;42884;50.718;4.630;2023-05-10T11:38:07;15.70;99.90
23873;DHT22;42884;50.718;4.630;2023-05-10T11:40:33;16.00;99.90
23873;DHT22;42884;50.718;4.630;2023-05-10T11:42:59;15.90;99.90
23873;DHT22;42884;50.718;4.630;2023-05-10T11:45:25;15.90;99.90
23873;DHT22;42884;50.718;4.630;2023-05-10T11:47:51;15.90;99.90
23873;DHT22;42884;50.718;4.630;2023-05-10T11:50:17;16.00;99.90
23873;DHT22;42884;50.718;4.630;2023-05-10T11:52:43;16.20;99.90
23873;DHT22;42884;50.718;4.630;2023-05-10T11:55:08;16.40;99.90
23873;DHT22;42884;50.718;4.630;2023-05-10T11:57:35;16.40;99.90
23873;DHT22;42884;50.718;4.630;2023-05-10T12:00:00;16.50;99.90
23873;DHT22;42884;50.718;4.630;2023-05-10T12:02:29;16.40;99.90
23873;DHT22;42884;50.718;4.630;2023-05-10T12:04:55;16.50;99.90
23873;DHT22;42884;50.718;4.630;2023-05-10T12:07:21;16.50;99.90
23873;DHT22;42884;50.718;4.630;2023-05-10T12:12:37;16.10;99.90
23873;DHT22;42884;50.718;4.630;2023-05-10T12:15:04;16.10;99.90
23873;DHT22;42884;50.718;4.630;2023-05-10T12:17:29;16.30;99.90
23873;DHT22;42884;50.718;4.630;2023-05-10T12:19:58;16.40;99.90
23873;DHT22;42884;50.718;4.630;2023-05-10T12:22:24;16.50;99.90
23873;DHT22;42884;50.718;4.630;2023-05-10T12:24:50;16.50;99.90
23873;DHT22;42884;50.718;4.630;2023-05-10T12:27:15;16.60;99.90
23873;DHT22;42884;50.718;4.630;2023-05-10T12:29:41;16.80;99.90
23873;DHT22;42884;50.718;4.630;2023-05-10T12:32:09;16.70;99.90
23873;DHT22;42884;50.718;4.630;2023-05-10T12:34:35;16.80;99.90
23873;DHT22;42884;50.718;4.630;2023-05-10T12:37:03;16.90;99.90
23873;DHT22;42884;50.718;4.630;2023-05-10T12:39:42;16.70;99.90
23873;DHT22;42884;50.718;4.630;2023-05-10T12:42:08;16.60;99.90
23873;DHT22;42884;50.718;4.630;2023-05-10T12:44:34;16.60;99.90
23873;DHT22;42884;50.718;4.630;2023-05-10T12:47:00;16.60;99.90
23873;DHT22;42884;50.718;4.630;2023-05-10T12:49:25;16.70;99.90
23873;DHT22;42884;50.718;4.630;2023-05-10T12:51:51;16.80;99.90
23873;DHT22;42884;50.718;4.630;2023-05-10T12:54:16;16.80;99.90
23873;DHT22;42884;50.718;4.630;2023-05-10T12:56:42;16.80;99.90
23873;DHT22;42884;50.718;4.630;2023-05-10T12:59:08;16.80;99.90
23873;DHT22;42884;50.718;4.630;2023-05-10T13:01:34;16.80;99.90
23873;DHT22;42884;50.718;4.630;2023-05-10T13:03:59;16.90;99.90
23873;DHT22;42884;50.718;4.630;2023-05-10T13:06:25;17.10;99.90
23873;DHT22;42884;50.718;4.630;2023-05-10T13:08:51;17.30;99.90
23873;DHT22;42884;50.718;4.630;2023-05-10T13:11:17;17.40;99.90
23873;DHT22;42884;50.718;4.630;2023-05-10T13:13:44;17.40;99.90
23873;DHT22;42884;50.718;4.630;2023-05-10T13:16:10;17.50;99.90
23873;DHT22;42884;50.718;4.630;2023-05-10T13:18:36;17.70;99.90
23873;DHT22;42884;50.718;4.630;2023-05-10T13:21:01;17.60;99.90
23873;DHT22;42884;50.718;4.630;2023-05-10T13:23:29;17.40;99.90
23873;DHT22;42884;50.718;4.630;2023-05-10T13:25:54;17.70;99.90
23873;DHT22;42884;50.718;4.630;2023-05-10T13:28:20;17.80;99.90
23873;DHT22;42884;50.718;4.630;2023-05-10T13:30:46;18.00;99.90
23873;DHT22;42884;50.718;4.630;2023-05-10T13:33:11;18.00;99.90
23873;DHT22;42884;50.718;4.630;2023-05-10T13:35:37;18.10;99.90
23873;DHT22;42884;50.718;4.630;2023-05-10T13:38:03;18.10;99.90
23873;DHT22;42884;50.718;4.630;2023-05-10T13:40:28;18.10;99.90
23873;DHT22;42884;50.718;4.630;2023-05-10T13:42:54;18.10;99.90
23873;DHT22;42884;50.718;4.630;2023-05-10T13:45:19;18.10;99.90
23873;DHT22;42884;50.718;4.630;2023-05-10T13:47:45;18.30;99.90
23873;DHT22;42884;50.718;4.630;2023-05-10T13:50:11;18.50;99.90
23873;DHT22;42884;50.718;4.630;2023-05-10T13:52:36;18.40;99.90
23873;DHT22;42884;50.718;4.630;2023-05-10T13:55:02;18.20;99.90
23873;DHT22;42884;50.718;4.630;2023-05-10T13:57:28;17.90;99.90
23873;DHT22;42884;50.718;4.630;2023-05-10T13:59:55;17.90;99.90
23873;DHT22;42884;50.718;4.630;2023-05-10T14:02:22;17.90;99.90
23873;DHT22;42884;50.718;4.630;2023-05-10T14:04:48;18.00;99.90
23873;DHT22;42884;50.718;4.630;2023-05-10T14:07:13;18.00;99.90
23873;DHT22;42884;50.718;4.630;2023-05-10T14:09:39;17.80;99.90
23873;DHT22;42884;50.718;4.630;2023-05-10T14:12:05;18.00;99.90
23873;DHT22;42884;50.718;4.630;2023-05-10T14:14:30;17.80;99.90
23873;DHT22;42884;50.718;4.630;2023-05-10T14:16:56;18.00;99.90
23873;DHT22;42884;50.718;4.630;2023-05-10T14:19:21;18.30;99.90
23873;DHT22;42884;50.718;4.630;2023-05-10T14:21:47;18.30;99.90
23873;DHT22;42884;50.718;4.630;2023-05-10T14:24:12;18.20;99.90
23873;DHT22;42884;50.718;4.630;2023-05-10T14:26:38;18.20;99.90
23873;DHT22;42884;50.718;4.630;2023-05-10T14:29:04;18.30;99.90
23873;DHT22;42884;50.718;4.630;2023-05-10T14:31:29;18.50;99.90
23873;DHT22;42884;50.718;4.630;2023-05-10T14:33:55;18.80;99.90
23873;DHT22;42884;50.718;4.630;2023-05-10T14:36:21;18.90;99.90
23873;DHT22;42884;50.718;4.630;2023-05-10T14:38:47;18.60;99.90
23873;DHT22;42884;50.718;4.630;2023-05-10T14:41:15;18.70;99.90
23873;DHT22;42884;50.718;4.630;2023-05-10T14:43:42;18.50;99.90
23873;DHT22;42884;50.718;4.630;2023-05-10T14:46:08;18.40;99.90
23873;DHT22;42884;50.718;4.630;2023-05-10T14:48:34;18.40;99.90
23873;DHT22;42884;50.718;4.630;2023-05-10T14:51:00;18.50;99.90
23873;DHT22;42884;50.718;4.630;2023-05-10T14:53:25;18.40;99.90
23873;DHT22;42884;50.718;4.630;2023-05-10T14:55:51;18.30;99.90
23873;DHT22;42884;50.718;4.630;2023-05-10T14:58:17;18.60;99.90
23873;DHT22;42884;50.718;4.630;2023-05-10T15:00:43;18.70;99.90
23873;DHT22;42884;50.718;4.630;2023-05-10T15:03:08;18.60;99.90
23873;DHT22;42884;50.718;4.630;2023-05-10T15:05:34;18.80;99.90
23873;DHT22;42884;50.718;4.630;2023-05-10T15:08:00;18.80;99.90
23873;DHT22;42884;50.718;4.630;2023-05-10T15:10:25;18.90;99.90
23873;DHT22;42884;50.718;4.630;2023-05-10T15:12:51;18.90;99.90
23873;DHT22;42884;50.718;4.630;2023-05-10T15:15:17;18.90;99.90
23873;DHT22;42884;50.718;4.630;2023-05-10T15:17:42;18.80;99.90
23873;DHT22;42884;50.718;4.630;2023-05-10T15:20:08;18.90;99.90
23873;DHT22;42884;50.718;4.630;2023-05-10T15:22:34;18.80;99.90
23873;DHT22;42884;50.718;4.630;2023-05-10T15:25:00;18.90;99.90
23873;DHT22;42884;50.718;4.630;2023-05-10T15:27:25;18.50;99.90
23873;DHT22;42884;50.718;4.630;2023-05-10T15:29:51;18.60;99.90
23873;DHT22;42884;50.718;4.630;2023-05-10T15:32:17;18.80;99.90
23873;DHT22;42884;50.718;4.630;2023-05-10T15:34:43;18.80;99.90
23873;DHT22;42884;50.718;4.630;2023-05-10T15:37:08;18.70;99.90
23873;DHT22;42884;50.718;4.630;2023-05-10T15:39:35;18.60;99.90
23873;DHT22;42884;50.718;4.630;2023-05-10T15:42:00;18.50;99.90
23873;DHT22;42884;50.718;4.630;2023-05-10T15:44:26;18.40;99.90
23873;DHT22;42884;50.718;4.630;2023-05-10T15:46:52;18.00;99.90
23873;DHT22;42884;50.718;4.630;2023-05-10T15:49:17;17.90;99.90
23873;DHT22;42884;50.718;4.630;2023-05-10T15:51:43;17.80;99.90
23873;DHT22;42884;50.718;4.630;2023-05-10T15:54:08;17.80;99.90
23873;DHT22;42884;50.718;4.630;2023-05-10T15:56:34;17.40;99.90
23873;DHT22;42884;50.718;4.630;2023-05-10T15:59:00;17.30;99.90
23873;DHT22;42884;50.718;4.630;2023-05-10T16:01:26;17.30;99.90
23873;DHT22;42884;50.718;4.630;2023-05-10T16:03:51;17.20;99.90